Thunder radar more information blitzortung!


Radar de pluja more information rain snow radar


Visita la nostra xarxa de llocs de meteo:

Template documentation
and downloads

And another site



Extreme low temperature From: 13-12-2017 09:00 Until: 09:59 warning for: Extreme low temperature Level: Yellow info button

Pagina Historial Weather Underground text

Diari Resum Novembre 27, 2017 Unitats:  Tant    Imperial   Mètric
« Previous Dia
SegĂźent Dia »
Diari Setmana Mensual Anual Personalitzada
  Maxima: Minima: Media:
Temperatura: 55.2 °F /  12.9 °C 35.6 °F /  2.0 °C 46 °F /  7.8 °C
Punt de rosada: 37.4 °F /  3.0 °C 23.2 °F /  -4.9 °C 30.4 °F /  -0.9 °C
Humitat: 67 % 48 % 55 %
Wind Speed: 6.9 mph /  11.1 km/h - 1.6 mph /  2.6 km/h
RĂ fegues de vent: 6.9 mph /  11.1 km/h - -
Vent:- - South
Pression baro: 30.4 in /  1030.7 hPa 30.1 in /  1018.8 hPa -
Precipitacions: 0 in /  0.0 mm    
Historical Graphs
 
 
Dades de taula per Novembre 27, 2017
Temps Temperatura Punt de rosada Pression baro Vent Wind Speed RĂ fegues de vent Humitat Rainfall Rate (Hourly)
00:00 39.9 °F /  4.4 °C 23.2 °F /  -4.9 °C 30.4 in /  1030.0 hPa SE 1.2 mph /  1.9 km/h   51 % 0 in /  0.0 mm
00:05 39.9 °F /  4.4 °C 23.2 °F /  -4.9 °C 30.4 in /  1030.0 hPa ENE 1.2 mph /  1.9 km/h   51 % 0 in /  0.0 mm
00:10 39.7 °F /  4.3 °C 23.2 °F /  -4.9 °C 30.4 in /  1030.0 hPa WNW 1.2 mph /  1.9 km/h 1.2 mph /  1.9 km/h 51 % 0 in /  0.0 mm
00:15 37.4 °F /  3.0 °C 23.5 °F /  -4.7 °C 30.4 in /  1029.0 hPa WSW 2 mph /  3.2 km/h 2 mph /  3.2 km/h 57 % 0 in /  0.0 mm
00:25 37 °F /  2.8 °C 23.5 °F /  -4.7 °C 30.4 in /  1029.0 hPa WSW 1 mph /  1.6 km/h 2 mph /  3.2 km/h 58 % 0 in /  0.0 mm
00:35 37.2 °F /  2.9 °C 24.3 °F /  -4.3 °C 30.4 in /  1029.0 hPa Calm   2 mph /  3.2 km/h 59 % 0 in /  0.0 mm
00:45 36.9 °F /  2.7 °C 24.3 °F /  -4.3 °C 30.4 in /  1029.0 hPa Calm   1 mph /  1.6 km/h 60 % 0 in /  0.0 mm
00:55 37 °F /  2.8 °C 24.4 °F /  -4.2 °C 30.4 in /  1029.0 hPa Calm   2 mph /  3.2 km/h 60 % 0 in /  0.0 mm
01:05 36.9 °F /  2.7 °C 24.3 °F /  -4.3 °C 30.4 in /  1030.0 hPa Calm   1 mph /  1.6 km/h 60 % 0 in /  0.0 mm
01:15 36.7 °F /  2.6 °C 24.1 °F /  -4.4 °C 30.4 in /  1030.0 hPa Calm   1 mph /  1.6 km/h 60 % 0 in /  0.0 mm
01:25 36.3 °F /  2.4 °C 23.7 °F /  -4.6 °C 30.4 in /  1030.0 hPa NNW 2 mph /  3.2 km/h 2 mph /  3.2 km/h 60 % 0 in /  0.0 mm
01:35 35.8 °F /  2.1 °C 23.5 °F /  -4.7 °C 30.4 in /  1030.0 hPa WNW 1 mph /  1.6 km/h 2 mph /  3.2 km/h 61 % 0 in /  0.0 mm
01:45 35.8 °F /  2.1 °C 23.5 °F /  -4.7 °C 30.4 in /  1030.0 hPa ENE 1 mph /  1.6 km/h   61 % 0 in /  0.0 mm
01:55 35.6 °F /  2.0 °C 23.5 °F /  -4.7 °C 30.4 in /  1030.0 hPa Calm     61 % 0 in /  0.0 mm
02:05 35.6 °F /  2.0 °C 23.5 °F /  -4.7 °C 30.4 in /  1030.0 hPa Calm   2 mph /  3.2 km/h 61 % 0 in /  0.0 mm
02:15 36 °F /  2.2 °C 24.3 °F /  -4.3 °C 30.4 in /  1030.0 hPa Calm   2 mph /  3.2 km/h 62 % 0 in /  0.0 mm
02:25 36.7 °F /  2.6 °C 25 °F /  -3.9 °C 30.4 in /  1030.0 hPa Calm   2 mph /  3.2 km/h 62 % 0 in /  0.0 mm
02:35 37.4 °F /  3.0 °C 25.5 °F /  -3.6 °C 30.4 in /  1030.0 hPa NNE 1 mph /  1.6 km/h 2 mph /  3.2 km/h 62 % 0 in /  0.0 mm
02:45 38.5 °F /  3.6 °C 26.6 °F /  -3.0 °C 30.4 in /  1030.0 hPa NE 1 mph /  1.6 km/h   62 % 0 in /  0.0 mm
02:55 38.7 °F /  3.7 °C 26.4 °F /  -3.1 °C 30.4 in /  1030.0 hPa NE 1 mph /  1.6 km/h 3 mph /  4.8 km/h 61 % 0 in /  0.0 mm
03:05 39.7 °F /  4.3 °C 27.3 °F /  -2.6 °C 30.4 in /  1030.0 hPa NE 1 mph /  1.6 km/h 1 mph /  1.6 km/h 61 % 0 in /  0.0 mm
03:15 41 °F /  5.0 °C 28.2 °F /  -2.1 °C 30.4 in /  1030.0 hPa Calm   1 mph /  1.6 km/h 60 % 0 in /  0.0 mm
03:25 42.1 °F /  5.6 °C 28.8 °F /  -1.8 °C 30.4 in /  1030.0 hPa SE 1 mph /  1.6 km/h 1 mph /  1.6 km/h 59 % 0 in /  0.0 mm
03:35 41.2 °F /  5.1 °C 27.5 °F /  -2.5 °C 30.4 in /  1030.0 hPa East 2 mph /  3.2 km/h 2 mph /  3.2 km/h 58 % 0 in /  0.0 mm
03:45 41.2 °F /  5.1 °C 27.1 °F /  -2.7 °C 30.4 in /  1030.0 hPa ENE 2 mph /  3.2 km/h 3 mph /  4.8 km/h 57 % 0 in /  0.0 mm
03:55 42.1 °F /  5.6 °C 27.9 °F /  -2.3 °C 30.4 in /  1030.7 hPa ENE 2 mph /  3.2 km/h 2 mph /  3.2 km/h 57 % 0 in /  0.0 mm
04:05 42.4 °F /  5.8 °C 28.2 °F /  -2.1 °C 30.4 in /  1030.7 hPa NE 1 mph /  1.6 km/h 3 mph /  4.8 km/h 57 % 0 in /  0.0 mm
04:15 42.8 °F /  6.0 °C 28.2 °F /  -2.1 °C 30.4 in /  1030.7 hPa NE 3 mph /  4.8 km/h 4 mph /  6.4 km/h 56 % 0 in /  0.0 mm
04:25 43.2 °F /  6.2 °C 28 °F /  -2.2 °C 30.4 in /  1030.7 hPa NE 3 mph /  4.8 km/h 4 mph /  6.4 km/h 55 % 0 in /  0.0 mm
04:35 44.6 °F /  7.0 °C 29.8 °F /  -1.2 °C 30.4 in /  1030.7 hPa NE 1 mph /  1.6 km/h 2 mph /  3.2 km/h 56 % 0 in /  0.0 mm
10:41 45 °F /  7.2 °C 29.8 °F /  -1.2 °C 30.4 in /  1030.7 hPa ENE 2.3 mph /  3.7 km/h 2.3 mph /  3.7 km/h 55 % 0 in /  0.0 mm
10:42 45 °F /  7.2 °C 29.8 °F /  -1.2 °C 30.4 in /  1030.7 hPa ENE 2.4 mph /  3.9 km/h 2.4 mph /  3.9 km/h 55 % 0 in /  0.0 mm
10:46 45.3 °F /  7.4 °C 30 °F /  -1.1 °C 30.4 in /  1030.0 hPa SW 1.2 mph /  1.9 km/h 1.2 mph /  1.9 km/h 55 % 0 in /  0.0 mm
10:51 46 °F /  7.8 °C 30.7 °F /  -0.7 °C 30.4 in /  1030.0 hPa ENE 2.3 mph /  3.7 km/h 2.3 mph /  3.7 km/h 55 % 0 in /  0.0 mm
10:56 46.4 °F /  8.0 °C 30.6 °F /  -0.8 °C 30.4 in /  1030.0 hPa ESE 2.3 mph /  3.7 km/h 2.3 mph /  3.7 km/h 54 % 0 in /  0.0 mm
11:01 46.6 °F /  8.1 °C 30.7 °F /  -0.7 °C 30.4 in /  1030.7 hPa East 2.3 mph /  3.7 km/h 2.3 mph /  3.7 km/h 54 % 0 in /  0.0 mm
11:06 47.1 °F /  8.4 °C 31.3 °F /  -0.4 °C 30.4 in /  1030.7 hPa ESE 2.3 mph /  3.7 km/h 2.3 mph /  3.7 km/h 54 % 0 in /  0.0 mm
11:11 47.5 °F /  8.6 °C 31.3 °F /  -0.4 °C 30.4 in /  1030.7 hPa SW 2.3 mph /  3.7 km/h 2.3 mph /  3.7 km/h 53 % 0 in /  0.0 mm
11:16 48 °F /  8.9 °C 32.2 °F /  0.1 °C 30.4 in /  1030.0 hPa East 1.2 mph /  1.9 km/h 1.2 mph /  1.9 km/h 54 % 0 in /  0.0 mm
11:21 48 °F /  8.9 °C 31.6 °F /  -0.2 °C 30.4 in /  1030.0 hPa ENE 2.3 mph /  3.7 km/h 2.3 mph /  3.7 km/h 53 % 0 in /  0.0 mm
11:26 48.2 °F /  9.0 °C 31.8 °F /  -0.1 °C 30.4 in /  1030.0 hPa SE 1.2 mph /  1.9 km/h 1.2 mph /  1.9 km/h 53 % 0 in /  0.0 mm
11:31 49.3 °F /  9.6 °C 32.9 °F /  0.5 °C 30.4 in /  1030.0 hPa South 1.4 mph /  2.3 km/h   53 % 0 in /  0.0 mm
11:36 49.5 °F /  9.7 °C 33.1 °F /  0.6 °C 30.4 in /  1030.0 hPa South 2.4 mph /  3.9 km/h 2.4 mph /  3.9 km/h 53 % 0 in /  0.0 mm
11:41 49.3 °F /  9.6 °C 32.9 °F /  0.5 °C 30.4 in /  1030.0 hPa SSE 1.2 mph /  1.9 km/h 1.2 mph /  1.9 km/h 53 % 0 in /  0.0 mm
11:46 49.1 °F /  9.5 °C 32.7 °F /  0.4 °C 30.4 in /  1030.0 hPa NNE 2.3 mph /  3.7 km/h 2.3 mph /  3.7 km/h 53 % 0 in /  0.0 mm
11:51 49.1 °F /  9.5 °C 32.7 °F /  0.4 °C 30.4 in /  1030.0 hPa ESE 2.3 mph /  3.7 km/h 2.3 mph /  3.7 km/h 53 % 0 in /  0.0 mm
11:57 49.3 °F /  9.6 °C 32.4 °F /  0.2 °C 30.4 in /  1030.0 hPa South 2.3 mph /  3.7 km/h   52 % 0 in /  0.0 mm
12:02 50.7 °F /  10.4 °C 34.2 °F /  1.2 °C 30.4 in /  1030.0 hPa South 1.2 mph /  1.9 km/h   53 % 0 in /  0.0 mm
12:07 50.4 °F /  10.2 °C 34 °F /  1.1 °C 30.4 in /  1030.0 hPa NNW 2.3 mph /  3.7 km/h 2.3 mph /  3.7 km/h 53 % 0 in /  0.0 mm
12:12 51.3 °F /  10.7 °C 34.7 °F /  1.5 °C 30.4 in /  1030.0 hPa ENE 1.4 mph /  2.3 km/h   53 % 0 in /  0.0 mm
12:17 50.9 °F /  10.5 °C 34 °F /  1.1 °C 30.4 in /  1030.0 hPa WNW 2.3 mph /  3.7 km/h 2.3 mph /  3.7 km/h 52 % 0 in /  0.0 mm
12:22 51.3 °F /  10.7 °C 34.2 °F /  1.2 °C 30.4 in /  1030.0 hPa East 2.3 mph /  3.7 km/h 2.3 mph /  3.7 km/h 52 % 0 in /  0.0 mm
12:27 51.1 °F /  10.6 °C 34.2 °F /  1.2 °C 30.4 in /  1030.0 hPa East 3.5 mph /  5.6 km/h 3.5 mph /  5.6 km/h 52 % 0 in /  0.0 mm
12:32 51.1 °F /  10.6 °C 34.2 °F /  1.2 °C 30.4 in /  1030.0 hPa NE 4.6 mph /  7.4 km/h 4.6 mph /  7.4 km/h 52 % 0 in /  0.0 mm
12:42 51.3 °F /  10.7 °C 34.2 °F /  1.2 °C 30.4 in /  1030.0 hPa WSW 2.3 mph /  3.7 km/h 2.3 mph /  3.7 km/h 52 % 0 in /  0.0 mm
12:47 52.3 °F /  11.3 °C 35.2 °F /  1.8 °C 30.4 in /  1029.0 hPa ENE 3.1 mph /  5.0 km/h 3.1 mph /  5.0 km/h 52 % 0 in /  0.0 mm
12:52 52.2 °F /  11.2 °C 35.1 °F /  1.7 °C 30.4 in /  1029.0 hPa NE 3.5 mph /  5.6 km/h 3.5 mph /  5.6 km/h 52 % 0 in /  0.0 mm
12:57 52.3 °F /  11.3 °C 35.2 °F /  1.8 °C 30.4 in /  1029.0 hPa NNW 3.5 mph /  5.6 km/h 3.5 mph /  5.6 km/h 52 % 0 in /  0.0 mm
13:02 53.1 °F /  11.7 °C 36 °F /  2.2 °C 30.4 in /  1029.0 hPa NW 4.6 mph /  7.4 km/h 4.6 mph /  7.4 km/h 52 % 0 in /  0.0 mm
13:07 54 °F /  12.2 °C 36.7 °F /  2.6 °C 30.4 in /  1029.0 hPa SW 6.9 mph /  11.1 km/h 6.9 mph /  11.1 km/h 52 % 0 in /  0.0 mm
13:12 54 °F /  12.2 °C 36.1 °F /  2.3 °C 30.4 in /  1029.0 hPa WSW 2.6 mph /  4.2 km/h 2.6 mph /  4.2 km/h 51 % 0 in /  0.0 mm
13:17 54.5 °F /  12.5 °C 36.7 °F /  2.6 °C 30.4 in /  1028.0 hPa WSW 4 mph /  6.4 km/h 4 mph /  6.4 km/h 51 % 0 in /  0.0 mm
13:22 54.5 °F /  12.5 °C 36.7 °F /  2.6 °C 30.4 in /  1028.0 hPa WSW 4.6 mph /  7.4 km/h 4.6 mph /  7.4 km/h 51 % 0 in /  0.0 mm
13:27 54.9 °F /  12.7 °C 37 °F /  2.8 °C 30.4 in /  1028.0 hPa WSW 2.3 mph /  3.7 km/h 2.3 mph /  3.7 km/h 51 % 0 in /  0.0 mm
13:32 55.2 °F /  12.9 °C 37.4 °F /  3.0 °C 30.4 in /  1028.0 hPa SW 6.2 mph /  10.0 km/h 6.2 mph /  10.0 km/h 51 % 0 in /  0.0 mm
13:37 54.9 °F /  12.7 °C 37 °F /  2.8 °C 30.4 in /  1028.0 hPa WSW 4.9 mph /  7.9 km/h 4.9 mph /  7.9 km/h 51 % 0 in /  0.0 mm
13:42 54.9 °F /  12.7 °C 36.7 °F /  2.6 °C 30.4 in /  1028.0 hPa West 2.4 mph /  3.9 km/h 2.4 mph /  3.9 km/h 50 % 0 in /  0.0 mm
13:47 54.9 °F /  12.7 °C 36.7 °F /  2.6 °C 30.4 in /  1028.0 hPa SSW 6 mph /  9.7 km/h 6 mph /  9.7 km/h 50 % 0 in /  0.0 mm
13:57 54.1 °F /  12.3 °C 35.4 °F /  1.9 °C 30.4 in /  1028.0 hPa SW 4.6 mph /  7.4 km/h 4.6 mph /  7.4 km/h 49 % 0 in /  0.0 mm
14:02 54 °F /  12.2 °C 35.2 °F /  1.8 °C 30.4 in /  1028.0 hPa West 4.6 mph /  7.4 km/h 4.6 mph /  7.4 km/h 49 % 0 in /  0.0 mm
14:07 54 °F /  12.2 °C 35.2 °F /  1.8 °C 30.4 in /  1028.0 hPa SSW 3.5 mph /  5.6 km/h 3.5 mph /  5.6 km/h 49 % 0 in /  0.0 mm
14:08 54 °F /  12.2 °C 35.2 °F /  1.8 °C 30.4 in /  1028.0 hPa SW 3.5 mph /  5.6 km/h 3.5 mph /  5.6 km/h 49 % 0 in /  0.0 mm
14:13 53.8 °F /  12.1 °C 35.1 °F /  1.7 °C 30.4 in /  1028.0 hPa WSW 4 mph /  6.4 km/h 4 mph /  6.4 km/h 49 % 0 in /  0.0 mm
14:18 53.8 °F /  12.1 °C 35.1 °F /  1.7 °C 30.4 in /  1028.0 hPa WSW 4 mph /  6.4 km/h 4 mph /  6.4 km/h 49 % 0 in /  0.0 mm
14:23 53.8 °F /  12.1 °C 35.1 °F /  1.7 °C 30.4 in /  1028.0 hPa WSW 2.3 mph /  3.7 km/h 2.3 mph /  3.7 km/h 49 % 0 in /  0.0 mm
14:28 54.1 °F /  12.3 °C 35.4 °F /  1.9 °C 30.4 in /  1028.0 hPa SSW 3.5 mph /  5.6 km/h 3.5 mph /  5.6 km/h 49 % 0 in /  0.0 mm
14:33 54.3 °F /  12.4 °C 35.4 °F /  1.9 °C 30.4 in /  1028.0 hPa WSW 3.5 mph /  5.6 km/h 3.5 mph /  5.6 km/h 49 % 0 in /  0.0 mm
14:38 54.5 °F /  12.5 °C 35.8 °F /  2.1 °C 30.4 in /  1028.0 hPa WSW 3.5 mph /  5.6 km/h 3.5 mph /  5.6 km/h 49 % 0 in /  0.0 mm
14:43 54.5 °F /  12.5 °C 35.8 °F /  2.1 °C 30.4 in /  1028.0 hPa SW 3.1 mph /  5.0 km/h 3.1 mph /  5.0 km/h 49 % 0 in /  0.0 mm
14:53 54.5 °F /  12.5 °C 35.8 °F /  2.1 °C 30.4 in /  1028.0 hPa SSW 4.6 mph /  7.4 km/h 4.6 mph /  7.4 km/h 49 % 0 in /  0.0 mm
14:58 54.9 °F /  12.7 °C 36 °F /  2.2 °C 30.4 in /  1028.0 hPa SW 1.2 mph /  1.9 km/h 1.2 mph /  1.9 km/h 49 % 0 in /  0.0 mm
15:03 54.9 °F /  12.7 °C 36 °F /  2.2 °C 30.3 in /  1027.0 hPa SW 3.5 mph /  5.6 km/h 3.5 mph /  5.6 km/h 49 % 0 in /  0.0 mm
15:08 54.9 °F /  12.7 °C 36 °F /  2.2 °C 30.3 in /  1027.0 hPa SW 3.8 mph /  6.1 km/h 3.8 mph /  6.1 km/h 49 % 0 in /  0.0 mm
15:13 54.9 °F /  12.7 °C 36 °F /  2.2 °C 30.3 in /  1027.0 hPa SW 2.3 mph /  3.7 km/h 2.3 mph /  3.7 km/h 49 % 0 in /  0.0 mm
15:18 54.5 °F /  12.5 °C 35.8 °F /  2.1 °C 30.3 in /  1027.0 hPa SSW 4.6 mph /  7.4 km/h 4.6 mph /  7.4 km/h 49 % 0 in /  0.0 mm
15:23 54.1 °F /  12.3 °C 34.9 °F /  1.6 °C 30.3 in /  1027.0 hPa SW 2.3 mph /  3.7 km/h 2.3 mph /  3.7 km/h 48 % 0 in /  0.0 mm
15:28 54.1 °F /  12.3 °C 34.9 °F /  1.6 °C 30.3 in /  1027.0 hPa SW 2.3 mph /  3.7 km/h 2.3 mph /  3.7 km/h 48 % 0 in /  0.0 mm
15:33 54.1 °F /  12.3 °C 34.9 °F /  1.6 °C 30.3 in /  1027.0 hPa SW 2.6 mph /  4.2 km/h   48 % 0 in /  0.0 mm
15:38 54 °F /  12.2 °C 34.7 °F /  1.5 °C 30.3 in /  1027.0 hPa SSW 3.5 mph /  5.6 km/h 3.5 mph /  5.6 km/h 48 % 0 in /  0.0 mm
15:43 53.8 °F /  12.1 °C 34.5 °F /  1.4 °C 30.3 in /  1027.0 hPa WSW 3.5 mph /  5.6 km/h 3.5 mph /  5.6 km/h 48 % 0 in /  0.0 mm
15:48 53.6 °F /  12.0 °C 34.3 °F /  1.3 °C 30.3 in /  1027.0 hPa SW 3.5 mph /  5.6 km/h 3.5 mph /  5.6 km/h 48 % 0 in /  0.0 mm
15:53 53.2 °F /  11.8 °C 34 °F /  1.1 °C 30.3 in /  1027.0 hPa SW 3.5 mph /  5.6 km/h 3.5 mph /  5.6 km/h 48 % 0 in /  0.0 mm
15:58 53.4 °F /  11.9 °C 34.2 °F /  1.2 °C 30.3 in /  1027.0 hPa WSW 2.3 mph /  3.7 km/h 2.3 mph /  3.7 km/h 48 % 0 in /  0.0 mm
16:03 53.2 °F /  11.8 °C 34 °F /  1.1 °C 30.3 in /  1027.0 hPa WSW 1.2 mph /  1.9 km/h   48 % 0 in /  0.0 mm
16:08 53.2 °F /  11.8 °C 34 °F /  1.1 °C 30.3 in /  1027.0 hPa Calm     48 % 0 in /  0.0 mm
16:13 53.1 °F /  11.7 °C 34 °F /  1.1 °C 30.3 in /  1027.0 hPa Calm     48 % 0 in /  0.0 mm
16:18 52.9 °F /  11.6 °C 33.6 °F /  0.9 °C 30.4 in /  1028.0 hPa Calm     48 % 0 in /  0.0 mm
16:23 52.5 °F /  11.4 °C 33.4 °F /  0.8 °C 30.4 in /  1028.0 hPa Calm     48 % 0 in /  0.0 mm
16:28 52.3 °F /  11.3 °C 33.3 °F /  0.7 °C 30.4 in /  1028.0 hPa Calm     48 % 0 in /  0.0 mm
16:33 52.2 °F /  11.2 °C 33.1 °F /  0.6 °C 30.3 in /  1027.0 hPa Calm     48 % 0 in /  0.0 mm
16:38 52 °F /  11.1 °C 32.9 °F /  0.5 °C 30.3 in /  1027.0 hPa Calm     48 % 0 in /  0.0 mm
16:43 52 °F /  11.1 °C 33.4 °F /  0.8 °C 30.3 in /  1027.0 hPa SW 2.3 mph /  3.7 km/h 2.3 mph /  3.7 km/h 49 % 0 in /  0.0 mm
16:48 52 °F /  11.1 °C 33.4 °F /  0.8 °C 30.3 in /  1027.0 hPa Calm     49 % 0 in /  0.0 mm
16:53 51.8 °F /  11.0 °C 33.3 °F /  0.7 °C 30.3 in /  1027.0 hPa WSW 1.4 mph /  2.3 km/h 1.4 mph /  2.3 km/h 49 % 0 in /  0.0 mm
16:58 51.4 °F /  10.8 °C 32.9 °F /  0.5 °C 30.3 in /  1027.0 hPa WSW 1.2 mph /  1.9 km/h 1.2 mph /  1.9 km/h 49 % 0 in /  0.0 mm
17:03 51.1 °F /  10.6 °C 32.5 °F /  0.3 °C 30.3 in /  1026.0 hPa WSW 1.2 mph /  1.9 km/h   49 % 0 in /  0.0 mm
17:08 50.7 °F /  10.4 °C 32.2 °F /  0.1 °C 30.3 in /  1026.0 hPa WSW 1.2 mph /  1.9 km/h 1.2 mph /  1.9 km/h 49 % 0 in /  0.0 mm
17:13 50.5 °F /  10.3 °C 32.2 °F /  0.1 °C 30.3 in /  1026.0 hPa WSW 1.4 mph /  2.3 km/h 1.4 mph /  2.3 km/h 49 % 0 in /  0.0 mm
17:15 50.4 °F /  10.2 °C 31.8 °F /  -0.1 °C 30.3 in /  1026.0 hPa WSW 2 mph /  3.2 km/h 2 mph /  3.2 km/h 49 % 0 in /  0.0 mm
17:20 50.2 °F /  10.1 °C 31.6 °F /  -0.2 °C 30.3 in /  1026.0 hPa WSW 2.3 mph /  3.7 km/h 2.3 mph /  3.7 km/h 49 % 0 in /  0.0 mm
17:25 49.8 °F /  9.9 °C 31.5 °F /  -0.3 °C 30.3 in /  1026.0 hPa WSW 2.3 mph /  3.7 km/h 2.3 mph /  3.7 km/h 49 % 0 in /  0.0 mm
17:30 49.5 °F /  9.7 °C 31.1 °F /  -0.5 °C 30.3 in /  1026.0 hPa WSW 1.2 mph /  1.9 km/h 1.2 mph /  1.9 km/h 49 % 0 in /  0.0 mm
17:35 49.3 °F /  9.6 °C 30.9 °F /  -0.6 °C 30.3 in /  1026.0 hPa WSW 2.3 mph /  3.7 km/h 2.3 mph /  3.7 km/h 49 % 0 in /  0.0 mm
17:40 49.1 °F /  9.5 °C 30.7 °F /  -0.7 °C 30.3 in /  1026.0 hPa Calm     49 % 0 in /  0.0 mm
17:45 48.7 °F /  9.3 °C 30.9 °F /  -0.6 °C 30.3 in /  1026.0 hPa Calm     50 % 0 in /  0.0 mm
17:50 48.6 °F /  9.2 °C 30.7 °F /  -0.7 °C 30.3 in /  1026.0 hPa Calm     50 % 0 in /  0.0 mm
17:55 48.2 °F /  9.0 °C 30.4 °F /  -0.9 °C 30.3 in /  1026.0 hPa Calm     50 % 0 in /  0.0 mm
18:00 48 °F /  8.9 °C 30.2 °F /  -1.0 °C 30.3 in /  1026.0 hPa WSW 1.2 mph /  1.9 km/h 1.4 mph /  2.3 km/h 50 % 0 in /  0.0 mm
18:05 47.8 °F /  8.8 °C 30 °F /  -1.1 °C 30.3 in /  1026.0 hPa West 2.9 mph /  4.7 km/h 2.9 mph /  4.7 km/h 50 % 0 in /  0.0 mm
18:10 47.8 °F /  8.8 °C 30 °F /  -1.1 °C 30.3 in /  1026.0 hPa WSW 2.4 mph /  3.9 km/h 2.4 mph /  3.9 km/h 50 % 0 in /  0.0 mm
18:15 47.7 °F /  8.7 °C 30.4 °F /  -0.9 °C 30.3 in /  1026.0 hPa WSW 1.2 mph /  1.9 km/h   51 % 0 in /  0.0 mm
18:20 47.5 °F /  8.6 °C 30.2 °F /  -1.0 °C 30.3 in /  1026.0 hPa WSW 2.3 mph /  3.7 km/h 2.3 mph /  3.7 km/h 51 % 0 in /  0.0 mm
18:25 47.3 °F /  8.5 °C 30 °F /  -1.1 °C 30.3 in /  1026.0 hPa Calm     51 % 0 in /  0.0 mm
18:30 47.1 °F /  8.4 °C 29.8 °F /  -1.2 °C 30.3 in /  1026.0 hPa WSW 1.2 mph /  1.9 km/h   51 % 0 in /  0.0 mm
18:35 46.8 °F /  8.2 °C 29.7 °F /  -1.3 °C 30.3 in /  1026.0 hPa WSW 1.2 mph /  1.9 km/h   51 % 0 in /  0.0 mm
18:40 46.6 °F /  8.1 °C 29.8 °F /  -1.2 °C 30.3 in /  1026.0 hPa Calm     52 % 0 in /  0.0 mm
18:45 46.2 °F /  7.9 °C 29.5 °F /  -1.4 °C 30.3 in /  1026.0 hPa Calm     52 % 0 in /  0.0 mm
18:50 46 °F /  7.8 °C 29.5 °F /  -1.4 °C 30.3 in /  1026.0 hPa Calm     52 % 0 in /  0.0 mm
18:55 46 °F /  7.8 °C 29.5 °F /  -1.4 °C 30.3 in /  1026.0 hPa SW 1.4 mph /  2.3 km/h 1.4 mph /  2.3 km/h 52 % 0 in /  0.0 mm
19:00 45.9 °F /  7.7 °C 29.7 °F /  -1.3 °C 30.3 in /  1026.0 hPa Calm     53 % 0 in /  0.0 mm
19:05 45.5 °F /  7.5 °C 29.3 °F /  -1.5 °C 30.3 in /  1026.0 hPa Calm     53 % 0 in /  0.0 mm
19:10 45.7 °F /  7.6 °C 29.5 °F /  -1.4 °C 30.3 in /  1026.0 hPa WSW 1.6 mph /  2.6 km/h   53 % 0 in /  0.0 mm
19:15 45.7 °F /  7.6 °C 29.5 °F /  -1.4 °C 30.3 in /  1026.0 hPa Calm     53 % 0 in /  0.0 mm
19:20 45.9 °F /  7.7 °C 29.7 °F /  -1.3 °C 30.3 in /  1026.0 hPa SW 2.3 mph /  3.7 km/h 2.3 mph /  3.7 km/h 53 % 0 in /  0.0 mm
19:25 45.9 °F /  7.7 °C 30 °F /  -1.1 °C 30.3 in /  1026.0 hPa WSW 1.2 mph /  1.9 km/h   54 % 0 in /  0.0 mm
19:30 46 °F /  7.8 °C 30.4 °F /  -0.9 °C 30.3 in /  1026.0 hPa WSW 2.3 mph /  3.7 km/h 2.3 mph /  3.7 km/h 54 % 0 in /  0.0 mm
19:35 45.9 °F /  7.7 °C 30 °F /  -1.1 °C 30.3 in /  1026.0 hPa WSW 2.3 mph /  3.7 km/h 2.3 mph /  3.7 km/h 54 % 0 in /  0.0 mm
19:40 45.9 °F /  7.7 °C 30 °F /  -1.1 °C 30.3 in /  1026.0 hPa WSW 2.6 mph /  4.2 km/h 2.6 mph /  4.2 km/h 54 % 0 in /  0.0 mm
19:45 45.9 °F /  7.7 °C 30 °F /  -1.1 °C 30.3 in /  1026.0 hPa SW 2.6 mph /  4.2 km/h 2.6 mph /  4.2 km/h 54 % 0 in /  0.0 mm
19:50 45.9 °F /  7.7 °C 30 °F /  -1.1 °C 30.3 in /  1026.0 hPa SW 2.3 mph /  3.7 km/h 2.3 mph /  3.7 km/h 54 % 0 in /  0.0 mm
19:55 45.7 °F /  7.6 °C 30 °F /  -1.1 °C 30.3 in /  1026.0 hPa SW 2.3 mph /  3.7 km/h 2.3 mph /  3.7 km/h 54 % 0 in /  0.0 mm
20:00 45.7 °F /  7.6 °C 30 °F /  -1.1 °C 30.3 in /  1026.0 hPa SW 3.5 mph /  5.6 km/h 3.5 mph /  5.6 km/h 54 % 0 in /  0.0 mm
20:05 45.5 °F /  7.5 °C 30.4 °F /  -0.9 °C 30.3 in /  1026.0 hPa SW 1.2 mph /  1.9 km/h 1.2 mph /  1.9 km/h 55 % 0 in /  0.0 mm
20:10 45.5 °F /  7.5 °C 30.4 °F /  -0.9 °C 30.3 in /  1026.0 hPa SW 2.3 mph /  3.7 km/h 2.3 mph /  3.7 km/h 55 % 0 in /  0.0 mm
20:15 45.3 °F /  7.4 °C 30 °F /  -1.1 °C 30.3 in /  1026.0 hPa SW 1.2 mph /  1.9 km/h   55 % 0 in /  0.0 mm
20:20 45.1 °F /  7.3 °C 29.8 °F /  -1.2 °C 30.3 in /  1026.0 hPa SW 1.2 mph /  1.9 km/h 1.2 mph /  1.9 km/h 55 % 0 in /  0.0 mm
20:25 45 °F /  7.2 °C 30.2 °F /  -1.0 °C 30.3 in /  1026.0 hPa Calm     56 % 0 in /  0.0 mm
20:30 44.8 °F /  7.1 °C 30 °F /  -1.1 °C 30.3 in /  1026.0 hPa SW 0.9 mph /  1.4 km/h   56 % 0 in /  0.0 mm
20:35 44.6 °F /  7.0 °C 29.8 °F /  -1.2 °C 30.3 in /  1026.0 hPa Calm     56 % 0 in /  0.0 mm
20:40 44.4 °F /  6.9 °C 29.1 °F /  -1.6 °C 30.3 in /  1026.0 hPa Calm     55 % 0 in /  0.0 mm
20:45 44.2 °F /  6.8 °C 29.1 °F /  -1.6 °C 30.3 in /  1026.0 hPa Calm     55 % 0 in /  0.0 mm
20:50 44.2 °F /  6.8 °C 29.1 °F /  -1.6 °C 30.3 in /  1026.0 hPa Calm     55 % 0 in /  0.0 mm
20:55 44.1 °F /  6.7 °C 28.9 °F /  -1.7 °C 30.3 in /  1026.0 hPa ENE 2.3 mph /  3.7 km/h 2.3 mph /  3.7 km/h 55 % 0 in /  0.0 mm
21:00 43.7 °F /  6.5 °C 28.9 °F /  -1.7 °C 30.3 in /  1026.0 hPa ENE 1.2 mph /  1.9 km/h   56 % 0 in /  0.0 mm
21:05 43.3 °F /  6.3 °C 28.8 °F /  -1.8 °C 30.3 in /  1026.0 hPa Calm     56 % 0 in /  0.0 mm
21:10 43.3 °F /  6.3 °C 29.1 °F /  -1.6 °C 30.3 in /  1026.0 hPa Calm     57 % 0 in /  0.0 mm
21:15 43 °F /  6.1 °C 28.8 °F /  -1.8 °C 30.3 in /  1024.9 hPa Calm     57 % 0 in /  0.0 mm
21:20 42.8 °F /  6.0 °C 28.6 °F /  -1.9 °C 30.3 in /  1024.9 hPa SW 1.2 mph /  1.9 km/h   57 % 0 in /  0.0 mm
21:25 42.4 °F /  5.8 °C 28.2 °F /  -2.1 °C 30.3 in /  1024.9 hPa Calm     57 % 0 in /  0.0 mm
21:30 42.4 °F /  5.8 °C 28.2 °F /  -2.1 °C 30.2 in /  1023.9 hPa SE 1.4 mph /  2.3 km/h   57 % 0 in /  0.0 mm
21:35 42.3 °F /  5.7 °C 28.6 °F /  -1.9 °C 30.2 in /  1023.9 hPa Calm     58 % 0 in /  0.0 mm
21:40 42.1 °F /  5.6 °C 28.4 °F /  -2.0 °C 30.2 in /  1023.9 hPa South 2.3 mph /  3.7 km/h   58 % 0 in /  0.0 mm
21:45 41.9 °F /  5.5 °C 28.2 °F /  -2.1 °C 30.2 in /  1023.9 hPa WSW 1.2 mph /  1.9 km/h 1.2 mph /  1.9 km/h 58 % 0 in /  0.0 mm
21:50 41.7 °F /  5.4 °C 28 °F /  -2.2 °C 30.2 in /  1023.9 hPa Calm     58 % 0 in /  0.0 mm
21:55 41.5 °F /  5.3 °C 27.9 °F /  -2.3 °C 30.2 in /  1023.9 hPa WSW 1.2 mph /  1.9 km/h   58 % 0 in /  0.0 mm
22:00 41.4 °F /  5.2 °C 27.7 °F /  -2.4 °C 30.2 in /  1023.9 hPa SW 1.2 mph /  1.9 km/h 1.2 mph /  1.9 km/h 58 % 0 in /  0.0 mm
22:05 41.2 °F /  5.1 °C 27.5 °F /  -2.5 °C 30.2 in /  1023.9 hPa Calm     58 % 0 in /  0.0 mm
22:10 41.2 °F /  5.1 °C 27.5 °F /  -2.5 °C 30.2 in /  1023.9 hPa WSW 2.3 mph /  3.7 km/h 2.3 mph /  3.7 km/h 58 % 0 in /  0.0 mm
22:15 41.2 °F /  5.1 °C 27.5 °F /  -2.5 °C 30.2 in /  1023.9 hPa WSW 1.4 mph /  2.3 km/h   58 % 0 in /  0.0 mm
22:20 41.2 °F /  5.1 °C 27.9 °F /  -2.3 °C 30.2 in /  1023.9 hPa Calm     59 % 0 in /  0.0 mm
22:25 41.2 °F /  5.1 °C 28.2 °F /  -2.1 °C 30.2 in /  1023.9 hPa Calm     60 % 0 in /  0.0 mm
22:30 41.2 °F /  5.1 °C 28.2 °F /  -2.1 °C 30.2 in /  1023.9 hPa Calm     60 % 0 in /  0.0 mm
22:33 41.2 °F /  5.1 °C 28.2 °F /  -2.1 °C 30.2 in /  1023.9 hPa Calm     60 % 0 in /  0.0 mm
22:35 36.9 °F /  2.7 °C 27 °F /  -2.8 °C 30.1 in /  1019.9 hPa NW 1 mph /  1.6 km/h 2 mph /  3.2 km/h 67 % 0 in /  0.0 mm
22:38 41.2 °F /  5.1 °C 28.2 °F /  -2.1 °C 30.2 in /  1023.9 hPa Calm     60 % 0 in /  0.0 mm
22:43 41.2 °F /  5.1 °C 28.2 °F /  -2.1 °C 30.2 in /  1023.9 hPa Calm     60 % 0 in /  0.0 mm
22:45 36.7 °F /  2.6 °C 26.8 °F /  -2.9 °C 30.1 in /  1019.9 hPa Calm   1 mph /  1.6 km/h 67 % 0 in /  0.0 mm
22:48 41.2 °F /  5.1 °C 28.2 °F /  -2.1 °C 30.2 in /  1023.9 hPa NNE 2.3 mph /  3.7 km/h 2.3 mph /  3.7 km/h 60 % 0 in /  0.0 mm
22:53 41 °F /  5.0 °C 28.6 °F /  -1.9 °C 30.2 in /  1023.9 hPa NNE 1.2 mph /  1.9 km/h   61 % 0 in /  0.0 mm
22:55 36.7 °F /  2.6 °C 26.8 °F /  -2.9 °C 30.1 in /  1019.9 hPa Calm     67 % 0 in /  0.0 mm
22:58 41 °F /  5.0 °C 28.6 °F /  -1.9 °C 30.2 in /  1023.9 hPa NE 2.3 mph /  3.7 km/h 2.3 mph /  3.7 km/h 61 % 0 in /  0.0 mm
23:03 40.8 °F /  4.9 °C 28.4 °F /  -2.0 °C 30.2 in /  1023.9 hPa NE 2.3 mph /  3.7 km/h 2.3 mph /  3.7 km/h 61 % 0 in /  0.0 mm
23:05 36.5 °F /  2.5 °C 26.6 °F /  -3.0 °C 30.1 in /  1019.9 hPa Calm     67 % 0 in /  0.0 mm
23:08 40.8 °F /  4.9 °C 28.4 °F /  -2.0 °C 30.2 in /  1023.9 hPa NE 1.2 mph /  1.9 km/h   61 % 0 in /  0.0 mm
23:13 40.6 °F /  4.8 °C 28.2 °F /  -2.1 °C 30.2 in /  1023.9 hPa East 2.3 mph /  3.7 km/h 2.3 mph /  3.7 km/h 61 % 0 in /  0.0 mm
23:15 36.3 °F /  2.4 °C 26.4 °F /  -3.1 °C 30.1 in /  1019.9 hPa NNE 1 mph /  1.6 km/h 1 mph /  1.6 km/h 67 % 0 in /  0.0 mm
23:18 40.6 °F /  4.8 °C 28.2 °F /  -2.1 °C 30.2 in /  1023.9 hPa Calm     61 % 0 in /  0.0 mm
23:23 40.5 °F /  4.7 °C 28 °F /  -2.2 °C 30.2 in /  1023.9 hPa Calm     61 % 0 in /  0.0 mm
23:25 36.3 °F /  2.4 °C 26.4 °F /  -3.1 °C 30.1 in /  1019.9 hPa Calm   1 mph /  1.6 km/h 67 % 0 in /  0.0 mm
23:28 40.3 °F /  4.6 °C 27.9 °F /  -2.3 °C 30.2 in /  1023.9 hPa SW 1.2 mph /  1.9 km/h 1.2 mph /  1.9 km/h 61 % 0 in /  0.0 mm
23:33 40.1 °F /  4.5 °C 27.7 °F /  -2.4 °C 30.2 in /  1023.9 hPa SW 1.2 mph /  1.9 km/h 1.2 mph /  1.9 km/h 61 % 0 in /  0.0 mm
23:35 36.3 °F /  2.4 °C 26.4 °F /  -3.1 °C 30.1 in /  1018.8 hPa Calm   2 mph /  3.2 km/h 67 % 0 in /  0.0 mm
23:38 39.9 °F /  4.4 °C 27.5 °F /  -2.5 °C 30.2 in /  1023.9 hPa SW 1.2 mph /  1.9 km/h   61 % 0 in /  0.0 mm
23:43 39.9 °F /  4.4 °C 27.5 °F /  -2.5 °C 30.2 in /  1023.9 hPa SW 2.3 mph /  3.7 km/h 2.3 mph /  3.7 km/h 61 % 0 in /  0.0 mm
23:45 36.1 °F /  2.3 °C 26.2 °F /  -3.2 °C 30.1 in /  1018.8 hPa Calm   2 mph /  3.2 km/h 67 % 0 in /  0.0 mm
23:48 39.9 °F /  4.4 °C 27.5 °F /  -2.5 °C 30.2 in /  1023.9 hPa SW 1.2 mph /  1.9 km/h   61 % 0 in /  0.0 mm
23:53 39.7 °F /  4.3 °C 27.3 °F /  -2.6 °C 30.2 in /  1023.9 hPa Calm     61 % 0 in /  0.0 mm
23:55 36 °F /  2.2 °C 26.1 °F /  -3.3 °C 30.1 in /  1018.8 hPa WSW 1 mph /  1.6 km/h 2 mph /  3.2 km/h 67 % 0 in /  0.0 mm
23:58 39.7 °F /  4.3 °C 27.9 °F /  -2.3 °C 30.2 in /  1023.9 hPa Calm     62 % 0 in /  0.0 mm
Meteo Sesrovires
Elogis d' Weather Underground - 3.5 mb

Guio original per  Jim McMurry - jmcmurry@mwt.net Adaptat per a la plantilla per  Wim van der Kuil - Leuven-Template.eu

Trobareu la nostra informacio del temps tambe a:

Weather Underground

AWEKAS